Time;durP1;ratioP1;P1;durP2;ratioP2;P2;SDS_P1;SDS_P2;PMS_P1;PMS_P2;Temp;Humidity;BMP_temperature;BMP_pressure;BME280_temperature;BME280_humidity;BME280_pressure;Samples;Min_cycle;Max_cycle;Signal;HPM_P1;HPM_P2
2023/10/01 00:02:10;;;;;;;19.88;9.18;;;;;;;;;;5051219;28;20476;-63
2023/10/01 00:04:36;;;;;;;20.85;9.32;;;;;;;;;;5051202;28;20049;-63
2023/10/01 00:07:02;;;;;;;22.95;10.60;;;;;;;;;;5050800;28;20067;-63
2023/10/01 00:09:31;;;;;;;17.55;9.00;;;;;;;;;;5050155;28;20379;-63
2023/10/01 00:11:58;;;;;;;19.63;9.18;;;;;;;;;;5051157;28;20388;-63
2023/10/01 00:14:24;;;;;;;19.42;9.43;;;;;;;;;;5050432;28;20439;-63
2023/10/01 00:16:51;;;;;;;19.52;9.52;;;;;;;;;;5026418;28;20045;-63
2023/10/01 00:19:17;;;;;;;25.13;9.50;;;;;;;;;;5013335;28;20124;-63
2023/10/01 00:21:43;;;;;;;18.30;9.43;;;;;;;;;;5012632;28;20426;-63
2023/10/01 00:24:09;;;;;;;20.15;9.63;;;;;;;;;;5031105;28;20037;-63
2023/10/01 00:26:36;;;;;;;18.58;9.10;;;;;;;;;;5027985;28;20438;-63
2023/10/01 00:29:02;;;;;;;26.85;9.73;;;;;;;;;;5050446;28;20120;-63
2023/10/01 00:31:28;;;;;;;18.38;9.63;;;;;;;;;;5050566;28;20125;-63
2023/10/01 00:33:54;;;;;;;20.83;9.80;;;;;;;;;;5050591;28;20128;-63
2023/10/01 00:36:20;;;;;;;19.17;9.77;;;;;;;;;;5031864;28;20086;-63
2023/10/01 00:38:48;;;;;;;20.27;9.82;;;;;;;;;;5050260;28;20044;-63
2023/10/01 00:41:15;;;;;;;19.10;9.63;;;;;;;;;;5050019;28;20048;-63
2023/10/01 00:43:41;;;;;;;20.30;9.82;;;;;;;;;;5049977;28;20131;-63
2023/10/01 00:46:08;;;;;;;21.27;9.30;;;;;;;;;;5050389;28;20076;-63
2023/10/01 00:48:36;;;;;;;20.42;9.80;;;;;;;;;;5050382;28;20041;-63
2023/10/01 00:51:05;;;;;;;20.27;9.70;;;;;;;;;;5049711;28;20135;-63
2023/10/01 00:53:31;;;;;;;19.40;9.65;;;;;;;;;;5050153;28;20053;-63
2023/10/01 00:56:00;;;;;;;20.05;10.60;;;;;;;;;;5050004;28;20044;-63
2023/10/01 00:58:26;;;;;;;20.10;9.38;;;;;;;;;;5049804;28;20301;-63
2023/10/01 01:00:52;;;;;;;19.00;9.57;;;;;;;;;;5050259;28;20051;-63
2023/10/01 01:03:21;;;;;;;16.83;9.40;;;;;;;;;;5050144;28;20036;-63
2023/10/01 01:05:57;;;;;;;17.77;8.88;;;;;;;;;;5049661;28;20117;-63
2023/10/01 01:08:33;;;;;;;22.77;9.68;;;;;;;;;;5050018;28;20048;-63
2023/10/01 01:11:01;;;;;;;16.92;9.20;;;;;;;;;;5050026;28;20436;-63
2023/10/01 01:13:28;;;;;;;18.77;10.18;;;;;;;;;;5049543;28;20502;-63
2023/10/01 01:15:57;;;;;;;22.25;10.80;;;;;;;;;;5049683;28;20113;-63
2023/10/01 01:18:26;;;;;;;24.08;10.07;;;;;;;;;;5030785;28;20052;-63
2023/10/01 01:20:58;;;;;;;20.10;10.82;;;;;;;;;;5029247;28;20072;-63
2023/10/01 01:23:24;;;;;;;31.45;9.98;;;;;;;;;;5029831;28;20042;-63
2023/10/01 01:25:52;;;;;;;21.17;9.60;;;;;;;;;;5038315;28;20120;-63
2023/10/01 01:28:24;;;;;;;19.90;9.95;;;;;;;;;;5031268;28;20140;-63
2023/10/01 01:30:50;;;;;;;;;;;;;;;;;;5050272;28;20474;-63
2023/10/01 01:33:20;;;;;;;17.83;9.43;;;;;;;;;;5049626;28;20243;-63
2023/10/01 01:35:49;;;;;;;21.40;9.60;;;;;;;;;;5049289;28;20048;-63
2023/10/01 01:38:15;;;;;;;19.27;9.63;;;;;;;;;;5049402;28;20462;-63
2023/10/01 01:40:42;;;;;;;21.23;9.88;;;;;;;;;;5049445;28;20064;-63
2023/10/01 01:46:08;;;;;;;24.00;10.85;;;;;;;;;;5035868;28;20458;-63
2023/10/01 01:48:37;;;;;;;15.48;10.32;;;;;;;;;;5031328;28;20052;-63
2023/10/01 01:51:04;;;;;;;22.60;10.73;;;;;;;;;;5049035;28;20412;-63
2023/10/01 01:53:35;;;;;;;18.83;10.75;;;;;;;;;;5049325;28;20053;-63
2023/10/01 01:56:08;;;;;;;16.73;10.30;;;;;;;;;;5049232;28;20048;-63
2023/10/01 01:58:34;;;;;;;19.20;10.50;;;;;;;;;;5048816;28;20044;-63
2023/10/01 02:01:17;;;;;;;16.08;10.52;;;;;;;;;;5049410;28;20759;-63
2023/10/01 02:03:51;;;;;;;24.35;11.25;;;;;;;;;;5049189;28;20119;-63
2023/10/01 02:06:26;;;;;;;17.95;9.80;;;;;;;;;;5049008;28;20147;-63
2023/10/01 02:08:56;;;;;;;18.42;10.90;;;;;;;;;;5049491;28;20098;-63
2023/10/01 02:11:22;;;;;;;19.52;10.63;;;;;;;;;;5049557;28;20045;-63
2023/10/01 02:13:51;;;;;;;20.42;10.23;;;;;;;;;;5049121;28;20116;-63
2023/10/01 02:18:56;;;;;;;16.05;10.55;;;;;;;;;;5029418;28;20480;-63
2023/10/01 02:21:43;;;;;;;19.20;10.57;;;;;;;;;;5029083;28;20042;-63
2023/10/01 02:24:14;;;;;;;19.05;10.73;;;;;;;;;;5011501;28;20065;-63
2023/10/01 02:26:46;;;;;;;19.40;10.57;;;;;;;;;;5045022;28;20041;-63
2023/10/01 02:29:13;;;;;;;16.30;9.68;;;;;;;;;;5049442;28;20151;-63
2023/10/01 02:31:39;;;;;;;15.68;10.35;;;;;;;;;;5049299;28;20166;-63
2023/10/01 02:34:08;;;;;;;16.63;10.68;;;;;;;;;;5052619;28;20392;-63
2023/10/01 02:36:42;;;;;;;17.77;10.35;;;;;;;;;;5052750;28;20136;-63
2023/10/01 02:39:19;;;;;;;21.17;11.02;;;;;;;;;;5052889;28;20175;-63
2023/10/01 02:42:03;;;;;;;19.65;11.07;;;;;;;;;;5052116;28;20123;-63
2023/10/01 02:44:29;;;;;;;16.88;11.80;;;;;;;;;;5034473;28;20482;-63
2023/10/01 02:46:58;;;;;;;18.50;11.32;;;;;;;;;;5052741;28;20033;-63
2023/10/01 02:49:24;;;;;;;21.48;12.18;;;;;;;;;;5052276;28;20033;-63
2023/10/01 02:51:50;;;;;;;17.35;10.95;;;;;;;;;;5052266;28;20057;-63
2023/10/01 02:54:20;;;;;;;19.73;12.07;;;;;;;;;;5052196;28;20127;-63
2023/10/01 02:56:52;;;;;;;18.60;12.77;;;;;;;;;;5052055;28;20501;-63
2023/10/01 02:59:19;;;;;;;20.80;11.98;;;;;;;;;;5052464;28;20175;-63
2023/10/01 03:01:46;;;;;;;19.20;12.02;;;;;;;;;;5052381;28;20040;-63
2023/10/01 03:04:15;;;;;;;21.30;11.77;;;;;;;;;;5051537;28;20048;-63
2023/10/01 03:06:54;;;;;;;20.67;11.73;;;;;;;;;;5052296;28;20041;-63
2023/10/01 03:09:31;;;;;;;20.58;11.75;;;;;;;;;;5052172;28;20041;-63
2023/10/01 03:12:24;;;;;;;21.95;11.82;;;;;;;;;;5051793;28;20629;-63
2023/10/01 03:14:59;;;;;;;22.50;12.02;;;;;;;;;;5051610;28;20045;-63
2023/10/01 03:17:27;;;;;;;21.23;11.57;;;;;;;;;;5041121;28;20400;-63
2023/10/01 03:19:53;;;;;;;16.85;10.05;;;;;;;;;;5031804;28;20049;-63
2023/10/01 03:22:31;;;;;;;17.30;10.38;;;;;;;;;;5032061;28;20045;-63
2023/10/01 03:25:13;;;;;;;19.77;11.18;;;;;;;;;;5033218;28;20081;-63
2023/10/01 03:27:39;;;;;;;21.60;11.73;;;;;;;;;;5051761;28;20032;-63
2023/10/01 03:30:20;;;;;;;17.20;10.45;;;;;;;;;;5051821;28;20718;-63
2023/10/01 03:32:46;;;;;;;19.13;10.60;;;;;;;;;;5051962;28;20080;-63
2023/10/01 03:35:12;;;;;;;19.45;10.52;;;;;;;;;;5051105;28;20171;-63
2023/10/01 03:37:38;;;;;;;19.63;10.38;;;;;;;;;;5051573;28;20037;-63
2023/10/01 03:40:22;;;;;;;19.27;10.15;;;;;;;;;;5051572;28;20040;-63
2023/10/01 03:42:51;;;;;;;17.17;9.88;;;;;;;;;;5050757;28;20041;-63
2023/10/01 03:47:50;;;;;;;18.38;10.15;;;;;;;;;;5051495;28;20087;-63
2023/10/01 03:50:20;;;;;;;15.20;8.98;;;;;;;;;;5050875;28;20040;-63
2023/10/01 03:52:53;;;;;;;16.75;9.00;;;;;;;;;;5051467;28;20045;-63
2023/10/01 03:57:57;;;;;;;17.75;9.10;;;;;;;;;;5051034;28;20434;-63
2023/10/01 04:00:34;;;;;;;16.77;9.70;;;;;;;;;;5033312;28;20051;-63
2023/10/01 04:03:01;;;;;;;19.92;9.32;;;;;;;;;;5050845;28;20455;-63
2023/10/01 04:05:31;;;;;;;16.27;9.00;;;;;;;;;;5051012;28;20469;-63
2023/10/01 04:08:09;;;;;;;16.42;8.60;;;;;;;;;;5033013;28;20066;-63
2023/10/01 04:10:39;;;;;;;13.35;9.05;;;;;;;;;;5050673;28;20037;-63
2023/10/01 04:13:21;;;;;;;14.95;8.32;;;;;;;;;;5051069;28;20498;-63
2023/10/01 04:15:49;;;;;;;17.48;9.32;;;;;;;;;;5032901;28;20056;-63
2023/10/01 04:20:47;;;;;;;16.60;8.68;;;;;;;;;;5030903;28;20065;-63
2023/10/01 04:23:21;;;;;;;19.60;9.13;;;;;;;;;;5030772;28;20052;-63
2023/10/01 04:25:51;;;;;;;15.43;8.98;;;;;;;;;;5020776;28;20160;-63
2023/10/01 04:28:18;;;;;;;20.52;9.55;;;;;;;;;;5050866;28;20541;-63
2023/10/01 04:30:45;;;;;;;18.25;9.52;;;;;;;;;;5050709;28;20446;-63
2023/10/01 04:33:17;;;;;;;18.10;8.85;;;;;;;;;;5050479;28;20442;-63
2023/10/01 04:35:51;;;;;;;;;;;;;;;;;;5050609;28;20041;-63
2023/10/01 04:38:18;;;;;;;17.98;8.88;;;;;;;;;;5050570;28;19927;-63
2023/10/01 04:40:46;;;;;;;18.65;8.23;;;;;;;;;;5049930;28;20078;-63
2023/10/01 04:43:16;;;;;;;17.90;8.80;;;;;;;;;;5050489;28;20037;-63
2023/10/01 04:45:44;;;;;;;14.85;8.18;;;;;;;;;;5050474;28;20376;-63
2023/10/01 04:48:15;;;;;;;15.30;8.45;;;;;;;;;;5049909;28;20045;-63
2023/10/01 04:50:46;;;;;;;16.20;8.68;;;;;;;;;;5050117;28;20140;-63
2023/10/01 04:53:15;;;;;;;17.15;9.27;;;;;;;;;;5050266;28;20045;-63
2023/10/01 04:55:41;;;;;;;15.32;8.95;;;;;;;;;;5049044;28;20040;-63
2023/10/01 04:58:14;;;;;;;19.60;9.77;;;;;;;;;;5049901;28;20080;-63
2023/10/01 05:00:45;;;;;;;18.23;10.13;;;;;;;;;;5049928;28;20041;-63
2023/10/01 05:03:15;;;;;;;18.52;9.68;;;;;;;;;;5031956;28;20124;-63
2023/10/01 05:05:42;;;;;;;16.30;9.38;;;;;;;;;;5050022;28;20044;-63
2023/10/01 05:08:15;;;;;;;17.70;10.43;;;;;;;;;;5050039;28;20041;-63
2023/10/01 05:10:51;;;;;;;23.17;10.13;;;;;;;;;;5049630;28;20052;-63
2023/10/01 05:13:22;;;;;;;17.67;10.07;;;;;;;;;;5050069;28;20067;-63
2023/10/01 05:15:56;;;;;;;16.10;9.68;;;;;;;;;;5031906;28;20041;-63
2023/10/01 05:18:26;;;;;;;22.13;10.40;;;;;;;;;;5030641;28;20041;-63
2023/10/01 05:20:58;;;;;;;20.35;9.80;;;;;;;;;;5029877;28;20053;-63
2023/10/01 05:23:24;;;;;;;18.38;10.13;;;;;;;;;;5012394;28;20515;-63
2023/10/01 05:25:50;;;;;;;16.30;9.73;;;;;;;;;;5037949;28;20119;-63
2023/10/01 05:28:33;;;;;;;19.58;9.82;;;;;;;;;;5049725;28;20037;-63
2023/10/01 05:31:00;;;;;;;17.55;9.75;;;;;;;;;;5049467;28;20091;-63
2023/10/01 05:33:27;;;;;;;20.50;9.80;;;;;;;;;;5031190;28;20045;-63
2023/10/01 05:36:03;;;;;;;15.05;9.35;;;;;;;;;;5049692;28;20040;-63
2023/10/01 05:38:33;;;;;;;15.93;9.57;;;;;;;;;;5031874;28;20047;-63
2023/10/01 05:41:01;;;;;;;16.65;9.40;;;;;;;;;;5049165;28;20079;-63
2023/10/01 05:43:31;;;;;;;20.27;8.80;;;;;;;;;;5049612;28;20132;-63
2023/10/01 05:46:01;;;;;;;16.92;8.80;;;;;;;;;;5049615;28;20120;-63
2023/10/01 05:48:29;;;;;;;17.73;9.02;;;;;;;;;;5049136;28;20037;-63
2023/10/01 05:50:57;;;;;;;17.27;8.77;;;;;;;;;;5031446;28;20072;-63
2023/10/01 05:53:24;;;;;;;15.27;8.63;;;;;;;;;;5049570;28;20053;-63
2023/10/01 05:55:50;;;;;;;16.33;8.63;;;;;;;;;;5048793;28;20052;-63
2023/10/01 05:58:16;;;;;;;15.48;8.20;;;;;;;;;;5049060;28;20106;-63
2023/10/01 06:00:53;;;;;;;14.65;8.48;;;;;;;;;;5049285;28;20106;-63
2023/10/01 06:03:20;;;;;;;20.98;9.82;;;;;;;;;;5049099;28;20033;-63
2023/10/01 06:05:58;;;;;;;14.73;8.07;;;;;;;;;;5049363;28;20453;-63
2023/10/01 06:08:32;;;;;;;14.50;8.75;;;;;;;;;;5052099;28;20068;-63
2023/10/01 06:11:05;;;;;;;13.38;7.53;;;;;;;;;;5052808;28;20140;-63
2023/10/01 06:13:38;;;;;;;16.73;7.60;;;;;;;;;;5053228;28;20048;-63
2023/10/01 06:16:11;;;;;;;17.50;7.63;;;;;;;;;;5052738;28;20045;-63
2023/10/01 06:18:41;;;;;;;19.08;7.88;;;;;;;;;;5032941;28;20056;-63
2023/10/01 06:21:11;;;;;;;18.48;8.18;;;;;;;;;;5032958;28;20045;-63
2023/10/01 06:23:49;;;;;;;13.40;7.82;;;;;;;;;;5015481;28;20049;-63
2023/10/01 06:26:45;;;;;;;17.30;8.07;;;;;;;;;;5044722;28;20119;-63
2023/10/01 06:29:13;;;;;;;14.43;7.75;;;;;;;;;;5053094;28;20048;-63
2023/10/01 06:32:02;;;;;;;15.52;7.22;;;;;;;;;;5052555;28;20438;-63
2023/10/01 06:34:31;;;;;;;14.60;7.50;;;;;;;;;;5051966;28;20053;-63
2023/10/01 06:36:58;;;;;;;19.15;8.45;;;;;;;;;;5052356;28;20084;-63
2023/10/01 06:39:30;;;;;;;21.60;10.82;;;;;;;;;;5052597;28;20055;-63
2023/10/01 06:42:18;;;;;;;26.63;16.70;;;;;;;;;;5052734;28;20091;-63
2023/10/01 06:44:48;;;;;;;29.30;18.75;;;;;;;;;;5052336;28;20124;-63
2023/10/01 06:47:15;;;;;;;18.92;12.35;;;;;;;;;;5052567;28;20472;-63
2023/10/01 06:49:57;;;;;;;19.92;9.05;;;;;;;;;;5052626;28;20059;-63
2023/10/01 06:52:23;;;;;;;20.25;9.32;;;;;;;;;;5052010;28;20084;-63
2023/10/01 06:54:49;;;;;;;14.88;7.20;;;;;;;;;;5052196;28;20041;-63
2023/10/01 06:57:21;;;;;;;18.30;9.10;;;;;;;;;;5052504;28;20594;-63
2023/10/01 06:59:47;;;;;;;15.80;7.75;;;;;;;;;;5052492;28;20060;-63
2023/10/01 07:02:13;;;;;;;18.13;8.88;;;;;;;;;;5051657;28;20045;-63
2023/10/01 07:04:41;;;;;;;19.65;7.88;;;;;;;;;;5052301;28;20104;-63
2023/10/01 07:07:20;;;;;;;20.15;8.15;;;;;;;;;;5052357;28;20049;-63
2023/10/01 07:09:46;;;;;;;18.65;7.78;;;;;;;;;;5051967;28;20385;-63
2023/10/01 07:12:12;;;;;;;15.85;8.00;;;;;;;;;;5052227;28;20511;-63
2023/10/01 07:14:39;;;;;;;17.48;8.48;;;;;;;;;;5051769;28;20450;-63
2023/10/01 07:17:08;;;;;;;21.02;8.05;;;;;;;;;;5043401;28;20033;-63
2023/10/01 07:19:35;;;;;;;18.23;8.70;;;;;;;;;;5031746;28;20041;-63
2023/10/01 07:22:06;;;;;;;15.70;7.45;;;;;;;;;;5032098;28;20049;-63
2023/10/01 07:24:33;;;;;;;20.52;7.53;;;;;;;;;;5031628;28;20037;-63
2023/10/01 07:27:06;;;;;;;14.25;7.88;;;;;;;;;;5049769;28;20120;-63
2023/10/01 07:29:35;;;;;;;21.67;7.85;;;;;;;;;;5051863;28;20052;-63
2023/10/01 07:32:07;;;;;;;15.52;7.47;;;;;;;;;;5051490;28;20055;-63
2023/10/01 07:34:39;;;;;;;15.23;7.82;;;;;;;;;;5051560;28;20037;-63
2023/10/01 07:37:05;;;;;;;15.35;7.78;;;;;;;;;;5051726;28;20083;-63
2023/10/01 07:39:32;;;;;;;16.75;7.78;;;;;;;;;;5051265;28;20045;-63
2023/10/01 07:41:59;;;;;;;16.33;7.45;;;;;;;;;;5051540;28;20395;-63
2023/10/01 07:44:27;;;;;;;16.88;8.10;;;;;;;;;;5051478;28;20084;-63
2023/10/01 07:46:53;;;;;;;18.25;8.23;;;;;;;;;;5032996;28;20076;-63
2023/10/01 07:49:21;;;;;;;14.15;7.57;;;;;;;;;;5051529;28;20037;-63
2023/10/01 07:51:48;;;;;;;14.15;7.93;;;;;;;;;;5051118;28;20053;-63
2023/10/01 07:54:23;;;;;;;18.95;8.10;;;;;;;;;;5050906;28;20114;-63
2023/10/01 07:56:56;;;;;;;17.63;8.15;;;;;;;;;;5051063;28;20541;-63
2023/10/01 07:59:34;;;;;;;18.90;7.97;;;;;;;;;;5051353;28;20052;-63
2023/10/01 08:02:19;;;;;;;16.48;7.95;;;;;;;;;;5050861;28;20115;-63
2023/10/01 08:07:16;;;;;;;15.55;7.78;;;;;;;;;;5032757;28;20040;-63
2023/10/01 08:09:46;;;;;;;14.13;6.88;;;;;;;;;;5051504;28;20124;-63
2023/10/01 08:12:15;;;;;;;17.58;7.65;;;;;;;;;;5051162;28;20099;-63
2023/10/01 08:14:41;;;;;;;17.13;8.00;;;;;;;;;;5050542;28;20053;-63
2023/10/01 08:17:08;;;;;;;17.95;8.40;;;;;;;;;;5042533;28;20308;-63
2023/10/01 08:19:54;;;;;;;16.98;7.43;;;;;;;;;;5031211;28;20076;-63
2023/10/01 08:22:23;;;;;;;14.00;7.13;;;;;;;;;;5030689;28;20042;-63
2023/10/01 08:24:51;;;;;;;14.23;7.93;;;;;;;;;;5013116;28;20447;-63
2023/10/01 08:27:29;;;;;;;15.10;7.97;;;;;;;;;;5033036;28;20088;-63
2023/10/01 08:29:59;;;;;;;15.80;7.50;;;;;;;;;;5049478;28;20045;-63
2023/10/01 08:32:38;;;;;;;14.05;6.88;;;;;;;;;;5050721;28;20080;-63
2023/10/01 08:35:08;;;;;;;14.00;6.63;;;;;;;;;;5050560;28;20426;-63
2023/10/01 08:37:37;;;;;;;16.65;7.95;;;;;;;;;;5050321;28;20120;-63
2023/10/01 08:40:17;;;;;;;18.38;7.72;;;;;;;;;;5050467;28;20033;-63
2023/10/01 08:42:44;;;;;;;15.07;7.30;;;;;;;;;;5050390;28;20050;-63
2023/10/01 08:45:12;;;;;;;19.67;8.10;;;;;;;;;;5050407;28;20041;-63
2023/10/01 08:47:38;;;;;;;18.67;7.43;;;;;;;;;;5050214;28;20041;-63
2023/10/01 08:50:27;;;;;;;14.00;6.55;;;;;;;;;;5050056;28;20535;-63
2023/10/01 08:52:57;;;;;;;17.98;7.43;;;;;;;;;;5050121;28;20041;-63
2023/10/01 08:55:25;;;;;;;18.48;7.30;;;;;;;;;;5049950;28;20120;-63
2023/10/01 08:57:55;;;;;;;13.98;6.78;;;;;;;;;;5050253;28;20037;-63
2023/10/01 09:00:24;;;;;;;17.42;7.15;;;;;;;;;;5049935;28;20041;-63
2023/10/01 09:02:55;;;;;;;16.40;7.25;;;;;;;;;;5050039;28;20171;-63
2023/10/01 09:05:24;;;;;;;18.48;6.93;;;;;;;;;;5049964;28;20041;-63
2023/10/01 09:08:14;;;;;;;14.57;7.03;;;;;;;;;;5031612;28;20040;-63
2023/10/01 09:10:38;;;;;;;18.77;6.95;;;;;;;;;;5049831;28;20041;-63
2023/10/01 09:13:04;;;;;;;15.60;6.85;;;;;;;;;;5050073;28;20049;-63
2023/10/01 09:15:38;;;;;;;20.70;7.90;;;;;;;;;;5049519;28;20394;-63
2023/10/01 09:18:10;;;;;;;15.23;6.45;;;;;;;;;;5033570;28;20462;-63
2023/10/01 09:20:42;;;;;;;17.30;6.93;;;;;;;;;;5029951;28;20049;-63
2023/10/01 09:23:08;;;;;;;17.45;6.93;;;;;;;;;;5029860;28;20424;-63
2023/10/01 09:25:34;;;;;;;17.45;7.28;;;;;;;;;;5036044;28;20512;-63
2023/10/01 09:28:19;;;;;;;17.13;7.45;;;;;;;;;;5049736;28;20048;-63
2023/10/01 09:31:03;;;;;;;16.98;7.40;;;;;;;;;;5049391;28;20550;-63
2023/10/01 09:33:31;;;;;;;16.83;6.63;;;;;;;;;;5049695;28;20284;-63
2023/10/01 09:35:59;;;;;;;15.40;6.63;;;;;;;;;;5049550;28;20045;-63
2023/10/01 09:38:28;;;;;;;17.42;6.95;;;;;;;;;;5049584;28;20049;-63
2023/10/01 09:40:58;;;;;;;14.02;6.15;;;;;;;;;;5049205;28;20046;-63
2023/10/01 09:43:24;;;;;;;15.60;6.50;;;;;;;;;;5049250;28;20391;-63
2023/10/01 09:45:54;;;;;;;20.40;6.90;;;;;;;;;;5049447;28;20094;-63
2023/10/01 09:48:36;;;;;;;15.55;7.40;;;;;;;;;;5049514;28;20518;-63
2023/10/01 09:51:09;;;;;;;15.13;7.35;;;;;;;;;;5048826;28;20068;-63
2023/10/01 09:53:44;;;;;;;18.55;7.00;;;;;;;;;;5049540;28;20045;-63
2023/10/01 09:56:12;;;;;;;21.38;7.20;;;;;;;;;;5049655;28;20053;-63
2023/10/01 09:58:46;;;;;;;19.35;7.18;;;;;;;;;;5030888;28;20067;-63
2023/10/01 10:01:13;;;;;;;19.48;7.13;;;;;;;;;;5049747;28;20045;-63
2023/10/01 10:03:42;;;;;;;19.05;7.40;;;;;;;;;;5049450;28;20048;-63
2023/10/01 10:06:09;;;;;;;16.38;7.07;;;;;;;;;;5049007;28;20461;-63
2023/10/01 10:08:35;;;;;;;18.23;7.65;;;;;;;;;;5049350;28;20041;-63
2023/10/01 10:11:02;;;;;;;19.85;7.22;;;;;;;;;;5049048;28;20044;-63
2023/10/01 10:13:45;;;;;;;22.45;7.78;;;;;;;;;;5048939;28;20530;-63
2023/10/01 10:16:30;;;;;;;18.13;7.63;;;;;;;;;;5048460;28;20040;-63
2023/10/01 10:19:05;;;;;;;19.13;6.95;;;;;;;;;;5011596;28;20133;-63
2023/10/01 10:21:49;;;;;;;17.70;6.78;;;;;;;;;;5028926;28;20574;-63
2023/10/01 10:24:28;;;;;;;18.50;6.97;;;;;;;;;;5029282;28;20080;-63
2023/10/01 10:26:58;;;;;;;21.15;7.82;;;;;;;;;;5046320;28;20072;-63
2023/10/01 10:29:24;;;;;;;16.88;6.90;;;;;;;;;;5048545;28;20132;-63
2023/10/01 10:32:09;;;;;;;19.40;6.75;;;;;;;;;;5048964;28;20079;-63
2023/10/01 10:34:48;;;;;;;19.40;7.57;;;;;;;;;;5048978;28;20048;-63
2023/10/01 10:37:32;;;;;;;14.55;7.28;;;;;;;;;;5048817;28;20060;-63
2023/10/01 10:40:22;;;;;;;17.02;7.47;;;;;;;;;;5048932;28;20125;-63
2023/10/01 10:43:02;;;;;;;16.65;7.05;;;;;;;;;;5048516;28;20128;-63
2023/10/01 10:45:42;;;;;;;14.63;6.65;;;;;;;;;;5048779;28;20049;-63
2023/10/01 10:48:08;;;;;;;17.98;7.30;;;;;;;;;;5048943;28;20074;-63
2023/10/01 10:50:53;;;;;;;19.33;6.75;;;;;;;;;;5048400;28;20045;-63
2023/10/01 10:53:23;;;;;;;18.40;6.88;;;;;;;;;;5049650;28;20072;-63
2023/10/01 10:56:00;;;;;;;19.92;7.70;;;;;;;;;;5052062;28;20059;-63
2023/10/01 10:58:28;;;;;;;16.77;7.13;;;;;;;;;;5051962;28;20073;-63
2023/10/01 11:01:09;;;;;;;17.70;7.30;;;;;;;;;;5052202;28;20067;-63
2023/10/01 11:03:41;;;;;;;20.20;7.78;;;;;;;;;;5052072;28;20059;-63
2023/10/01 11:06:07;;;;;;;;;;;;;;;;;;5052286;28;20045;-63
2023/10/01 11:08:35;;;;;;;20.30;7.30;;;;;;;;;;5052318;28;19916;-63
2023/10/01 11:11:10;;;;;;;18.85;7.93;;;;;;;;;;5052232;28;20102;-63
2023/10/01 11:13:45;;;;;;;16.67;6.90;;;;;;;;;;5051657;28;20087;-63
2023/10/01 11:16:16;;;;;;;17.77;7.60;;;;;;;;;;5051150;28;20053;-63
2023/10/01 11:18:44;;;;;;;21.07;7.30;;;;;;;;;;5032269;28;20433;-63
2023/10/01 11:21:13;;;;;;;16.98;7.05;;;;;;;;;;5031631;28;20300;-63
2023/10/01 11:23:39;;;;;;;15.63;7.15;;;;;;;;;;5031972;28;20042;-63
2023/10/01 11:26:06;;;;;;;15.45;6.80;;;;;;;;;;5042174;28;20037;-63
2023/10/01 11:28:41;;;;;;;18.20;7.32;;;;;;;;;;5051337;28;20045;-63
2023/10/01 11:31:31;;;;;;;18.70;7.25;;;;;;;;;;5033808;28;20056;-63
2023/10/01 11:34:21;;;;;;;17.70;7.45;;;;;;;;;;5051912;28;20423;-63
2023/10/01 11:36:47;;;;;;;18.77;7.57;;;;;;;;;;5051967;28;20346;-63
2023/10/01 11:39:16;;;;;;;19.45;7.28;;;;;;;;;;5033910;28;20292;-63
2023/10/01 11:41:45;;;;;;;19.23;7.30;;;;;;;;;;5033459;28;20045;-63
2023/10/01 11:44:25;;;;;;;15.30;7.03;;;;;;;;;;5051395;28;20040;-63
2023/10/01 11:46:57;;;;;;;17.75;7.10;;;;;;;;;;5051383;28;20047;-63
2023/10/01 11:49:34;;;;;;;19.40;7.43;;;;;;;;;;5051251;28;20391;-63
2023/10/01 11:52:21;;;;;;;17.05;6.30;;;;;;;;;;5051100;28;20060;-63
2023/10/01 11:54:53;;;;;;;18.25;8.02;;;;;;;;;;5051495;28;20185;-63
2023/10/01 11:57:22;;;;;;;21.30;7.70;;;;;;;;;;5051122;28;20450;-63
2023/10/01 11:59:54;;;;;;;19.40;6.90;;;;;;;;;;5051033;28;20132;-63
2023/10/01 12:02:32;;;;;;;18.52;7.63;;;;;;;;;;5051305;28;20118;-63
2023/10/01 12:04:59;;;;;;;18.98;7.18;;;;;;;;;;5050618;28;20045;-63
2023/10/01 12:07:43;;;;;;;17.20;6.70;;;;;;;;;;5051314;28;20040;-63
2023/10/01 12:10:31;;;;;;;18.30;6.93;;;;;;;;;;5051243;28;20120;-63
2023/10/01 12:12:56;;;;;;;18.52;7.63;;;;;;;;;;5050318;28;20131;-63
2023/10/01 12:15:34;;;;;;;16.52;7.20;;;;;;;;;;5050855;28;20095;-63
2023/10/01 12:18:07;;;;;;;18.73;6.93;;;;;;;;;;5035308;28;20046;-63
2023/10/01 12:20:39;;;;;;;15.02;6.85;;;;;;;;;;5030596;28;20399;-63
2023/10/01 12:23:11;;;;;;;;;;;;;;;;;;5031113;28;20037;-63
2023/10/01 12:25:46;;;;;;;17.02;6.78;;;;;;;;;;5037628;28;20135;-63
2023/10/01 12:28:17;;;;;;;15.10;6.35;;;;;;;;;;5050493;28;20476;-63
2023/10/01 12:30:44;;;;;;;16.75;6.70;;;;;;;;;;5050653;28;20262;-63
2023/10/01 12:33:10;;;;;;;20.17;7.40;;;;;;;;;;5050701;28;20040;-63
2023/10/01 12:35:37;;;;;;;21.70;7.05;;;;;;;;;;5050094;28;20076;-63
2023/10/01 12:38:05;;;;;;;16.45;5.93;;;;;;;;;;5050365;28;20037;-63
2023/10/01 12:40:35;;;;;;;15.18;6.10;;;;;;;;;;5050501;28;20119;-63
2023/10/01 12:43:02;;;;;;;13.65;6.15;;;;;;;;;;5050184;28;20033;-63
2023/10/01 12:45:28;;;;;;;15.57;6.55;;;;;;;;;;5050330;28;20036;-63
2023/10/01 12:47:54;;;;;;;18.10;7.38;;;;;;;;;;5050446;28;20037;-63
2023/10/01 12:50:26;;;;;;;14.20;6.05;;;;;;;;;;5049837;28;20454;-63
2023/10/01 12:53:18;;;;;;;14.30;6.18;;;;;;;;;;5050350;28;20206;-63
2023/10/01 12:55:54;;;;;;;15.05;5.90;;;;;;;;;;5049764;28;20044;-63
2023/10/01 12:58:22;;;;;;;14.20;6.22;;;;;;;;;;5050333;28;20041;-64
2023/10/01 13:00:50;;;;;;;14.90;6.18;;;;;;;;;;5050125;28;20060;-64
2023/10/01 13:03:17;;;;;;;16.83;6.13;;;;;;;;;;5050144;28;20063;-64
2023/10/01 13:05:44;;;;;;;15.48;6.43;;;;;;;;;;5050082;28;20041;-64
2023/10/01 13:08:27;;;;;;;16.05;6.88;;;;;;;;;;5050428;28;20193;-64
2023/10/01 13:10:57;;;;;;;14.85;6.28;;;;;;;;;;5049627;28;20041;-64
2023/10/01 13:13:29;;;;;;;15.70;6.22;;;;;;;;;;5049731;28;20049;-64
2023/10/01 13:15:56;;;;;;;19.17;7.00;;;;;;;;;;5049258;28;20123;-64
2023/10/01 13:18:28;;;;;;;16.73;6.22;;;;;;;;;;5030383;28;20038;-64
2023/10/01 13:23:28;;;;;;;14.18;6.47;;;;;;;;;;5029957;28;20527;-64
2023/10/01 13:26:09;;;;;;;15.40;6.30;;;;;;;;;;5038842;28;20391;-64
2023/10/01 13:28:51;;;;;;;16.50;6.78;;;;;;;;;;5049592;28;20044;-64
2023/10/01 14:09:54;;;;;;;15.93;6.78;;;;;;;;;;5049490;28;20044;-64
2023/10/01 14:12:41;;;;;;;14.50;6.45;;;;;;;;;;5031530;28;20098;-64
2023/10/01 14:15:21;;;;;;;14.13;6.10;;;;;;;;;;5031251;28;20207;-64
2023/10/01 14:17:58;;;;;;;16.50;7.20;;;;;;;;;;5034925;28;20570;-64
2023/10/01 14:23:22;;;;;;;14.48;6.68;;;;;;;;;;5029331;28;20235;-64
2023/10/01 14:25:53;;;;;;;17.50;7.00;;;;;;;;;;5037177;28;20484;-64
2023/10/01 14:28:28;;;;;;;15.70;6.45;;;;;;;;;;5050056;28;20467;-64
2023/10/01 14:31:05;;;;;;;16.42;7.13;;;;;;;;;;5052722;28;20037;-64
2023/10/01 14:33:32;;;;;;;14.07;6.18;;;;;;;;;;5052610;28;20075;-64
2023/10/01 14:36:05;;;;;;;14.13;6.95;;;;;;;;;;5052851;28;20041;-64
2023/10/01 14:38:37;;;;;;;14.85;6.93;;;;;;;;;;5052572;28;20056;-64
2023/10/01 14:41:04;;;;;;;13.95;6.88;;;;;;;;;;5052439;28;20068;-64
2023/10/01 14:43:30;;;;;;;17.25;6.82;;;;;;;;;;5052637;28;20040;-64
2023/10/01 14:45:56;;;;;;;15.85;7.50;;;;;;;;;;5052475;28;20044;-64
2023/10/01 14:48:23;;;;;;;13.57;6.05;;;;;;;;;;5052073;28;20032;-64
2023/10/01 14:50:49;;;;;;;15.93;6.28;;;;;;;;;;5052560;28;20065;-64
2023/10/01 14:53:18;;;;;;;13.27;6.40;;;;;;;;;;5052787;28;20041;-64
2023/10/01 14:55:44;;;;;;;16.52;6.90;;;;;;;;;;5052131;28;20052;-64
2023/10/01 14:58:14;;;;;;;17.50;7.78;;;;;;;;;;5052589;28;20403;-64
2023/10/01 15:00:49;;;;;;;14.75;6.40;;;;;;;;;;5052598;28;20094;-64
2023/10/01 15:03:20;;;;;;;16.77;7.00;;;;;;;;;;5052216;28;20041;-64
2023/10/01 15:05:46;;;;;;;16.63;6.90;;;;;;;;;;5052494;28;20052;-64
2023/10/01 15:08:12;;;;;;;14.32;6.72;;;;;;;;;;5052362;28;20045;-64
2023/10/01 15:10:49;;;;;;;16.85;7.40;;;;;;;;;;5052456;28;20056;-64
2023/10/01 15:13:15;;;;;;;17.27;7.35;;;;;;;;;;5052317;28;20081;-64
2023/10/01 15:15:44;;;;;;;14.35;6.60;;;;;;;;;;5052052;28;20065;-64
2023/10/01 15:18:17;;;;;;;15.57;7.38;;;;;;;;;;5034749;28;20156;-64
2023/10/01 15:20:49;;;;;;;13.93;6.57;;;;;;;;;;5032220;28;20140;-64
2023/10/01 15:23:16;;;;;;;17.30;6.85;;;;;;;;;;5032262;28;20045;-64
2023/10/01 15:25:42;;;;;;;14.73;6.85;;;;;;;;;;5038815;28;20045;-64
2023/10/01 15:28:09;;;;;;;14.52;6.82;;;;;;;;;;5052142;28;20068;-64
2023/10/01 15:30:38;;;;;;;14.70;7.20;;;;;;;;;;5052120;28;20072;-64
2023/10/01 15:33:15;;;;;;;16.08;7.05;;;;;;;;;;5051722;28;20748;-64
2023/10/01 15:35:43;;;;;;;16.13;7.45;;;;;;;;;;5051512;28;20044;-64
2023/10/01 15:38:09;;;;;;;16.45;7.60;;;;;;;;;;5051989;28;20109;-64
2023/10/01 15:40:51;;;;;;;13.27;7.03;;;;;;;;;;5051111;28;20049;-64
2023/10/01 15:43:20;;;;;;;18.75;7.70;;;;;;;;;;5033950;28;20044;-64
2023/10/01 15:45:47;;;;;;;18.15;8.15;;;;;;;;;;5051648;28;20456;-64
2023/10/01 15:48:17;;;;;;;17.23;7.90;;;;;;;;;;5050983;28;20147;-64
2023/10/01 15:50:44;;;;;;;16.63;7.55;;;;;;;;;;5051288;28;20393;-64
2023/10/01 15:53:21;;;;;;;16.65;7.05;;;;;;;;;;5051471;28;20044;-64